Time;durP1;ratioP1;P1;durP2;ratioP2;P2;SDS_P1;SDS_P2;PMS_P1;PMS_P2;Temp;Humidity;BMP_temperature;BMP_pressure;BME280_temperature;BME280_humidity;BME280_pressure;Samples;Min_cycle;Max_cycle;Signal;HPM_P1;HPM_P2
2021/07/04 00:00:34;;;;;;;1.85;1.50;;;28.60;47.80;;;;;;5084282;28;20032;-60
2021/07/04 00:03:01;;;;;;;1.90;1.50;;;28.60;47.70;;;;;;5087466;28;20027;-62
2021/07/04 00:05:31;;;;;;;2.78;1.75;;;28.60;48.10;;;;;;5082571;28;20032;-62
2021/07/04 00:07:58;;;;;;;1.90;1.52;;;28.60;47.50;;;;;;5085548;28;20534;-60
2021/07/04 00:10:27;;;;;;;1.92;1.33;;;28.60;47.70;;;;;;5085873;28;20036;-55
2021/07/04 00:12:53;;;;;;;3.28;1.73;;;28.70;47.60;;;;;;5071589;28;20052;-60
2021/07/04 00:15:21;;;;;;;2.05;1.60;;;28.70;47.60;;;;;;5079111;28;20100;-60
2021/07/04 00:17:47;;;;;;;1.60;1.33;;;28.70;47.50;;;;;;5084567;28;20024;-62
2021/07/04 00:20:14;;;;;;;1.92;1.42;;;28.70;47.50;;;;;;5092375;28;20062;-60
2021/07/04 00:22:41;;;;;;;2.60;1.63;;;28.70;47.60;;;;;;5084148;28;20035;-61
2021/07/04 00:25:09;;;;;;;1.90;1.30;;;28.70;47.60;;;;;;5093362;28;20059;-58
2021/07/04 00:27:35;;;;;;;1.83;1.42;;;28.70;47.50;;;;;;5083047;28;20387;-58
2021/07/04 00:30:03;;;;;;;2.75;1.50;;;28.70;47.50;;;;;;5091764;28;20043;-62
2021/07/04 00:32:29;;;;;;;1.80;1.40;;;28.80;47.50;;;;;;5084068;28;20082;-62
2021/07/04 00:34:54;;;;;;;1.90;1.50;;;28.80;47.50;;;;;;5084260;28;20056;-59
2021/07/04 00:37:20;;;;;;;2.00;1.42;;;28.80;47.50;;;;;;5074949;28;20084;-60
2021/07/04 00:39:45;;;;;;;1.80;1.40;;;28.80;47.50;;;;;;5084025;28;20506;-60
2021/07/04 00:42:13;;;;;;;2.00;1.35;;;28.80;47.40;;;;;;5083909;28;20028;-61
2021/07/04 00:44:40;;;;;;;1.90;1.45;;;28.80;47.40;;;;;;5083238;28;20092;-62
2021/07/04 00:47:05;;;;;;;1.50;1.30;;;28.80;47.50;;;;;;5083720;28;20075;-62
2021/07/04 00:49:31;;;;;;;1.83;1.40;;;28.80;47.60;;;;;;5084133;28;20059;-62
2021/07/04 00:51:59;;;;;;;2.45;1.73;;;28.80;47.70;;;;;;5071686;28;20040;-63
2021/07/04 00:54:25;;;;;;;2.13;1.60;;;28.80;47.40;;;;;;5084128;28;20024;-61
2021/07/04 00:56:51;;;;;;;2.55;1.83;;;28.80;47.30;;;;;;5073370;28;20135;-62
2021/07/04 00:59:16;;;;;;;2.05;1.50;;;28.80;47.30;;;;;;5080895;28;20096;-59
2021/07/04 01:01:42;;;;;;;2.42;1.70;;;28.80;47.30;;;;;;5096580;28;20044;-61
2021/07/04 01:04:08;;;;;;;1.88;1.38;;;28.80;47.30;;;;;;5083927;28;20028;-59
2021/07/04 01:06:33;;;;;;;2.05;1.58;;;28.70;47.30;;;;;;5083670;28;20028;-60
2021/07/04 01:09:00;;;;;;;2.00;1.50;;;28.70;47.40;;;;;;5084806;28;20023;-61
2021/07/04 01:11:26;;;;;;;1.73;1.40;;;28.70;47.40;;;;;;5082549;28;20036;-59
2021/07/04 01:13:52;;;;;;;2.17;1.60;;;28.70;48.00;;;;;;5066605;28;20036;-57
2021/07/04 01:16:18;;;;;;;1.98;1.50;;;28.70;47.60;;;;;;5083605;28;20078;-62
2021/07/04 01:18:43;;;;;;;2.22;1.50;;;28.70;47.50;;;;;;5086701;28;20052;-58
2021/07/04 01:21:10;;;;;;;2.10;1.50;;;28.70;47.50;;;;;;5089429;28;20047;-61
2021/07/04 01:23:36;;;;;;;2.03;1.50;;;28.70;47.60;;;;;;5087657;28;20537;-62
2021/07/04 01:26:02;;;;;;;2.40;1.45;;;28.70;47.60;;;;;;5084691;28;20028;-62
2021/07/04 01:28:29;;;;;;;2.63;1.40;;;28.70;47.60;;;;;;5088695;28;20043;-61
2021/07/04 01:30:58;;;;;;;2.17;1.60;;;28.70;47.70;;;;;;5089637;28;20043;-62
2021/07/04 01:33:25;;;;;;;1.73;1.30;;;28.70;47.70;;;;;;5083062;28;20034;-61
2021/07/04 01:35:51;;;;;;;1.60;1.50;;;28.70;47.70;;;;;;5083610;28;20066;-60
2021/07/04 01:38:16;;;;;;;1.80;1.40;;;28.70;47.80;;;;;;5088917;28;20439;-61
2021/07/04 01:40:42;;;;;;;2.17;1.60;;;28.60;47.70;;;;;;5092904;28;20024;-61
2021/07/04 01:43:08;;;;;;;2.10;1.40;;;28.60;47.90;;;;;;5072199;28;20063;-62
2021/07/04 01:45:36;;;;;;;2.30;1.50;;;28.60;47.80;;;;;;5092610;28;20107;-62
2021/07/04 01:48:03;;;;;;;2.30;1.50;;;28.60;47.80;;;;;;5082721;28;20026;-62
2021/07/04 01:50:32;;;;;;;1.88;1.50;;;28.60;47.80;;;;;;5067828;28;20119;-63
2021/07/04 01:52:58;;;;;;;2.88;1.50;;;28.70;47.80;;;;;;5080994;28;20122;-59
2021/07/04 01:55:24;;;;;;;1.88;1.45;;;28.60;48.30;;;;;;5092156;28;20032;-57
2021/07/04 01:57:50;;;;;;;1.90;1.50;;;28.60;47.90;;;;;;5083706;28;20030;-62
2021/07/04 02:00:23;;;;;;;1.80;1.48;;;28.60;47.90;;;;;;5082758;28;20051;-63
2021/07/04 02:02:52;;;;;;;1.98;1.50;;;28.60;47.90;;;;;;5073720;28;20123;-59
2021/07/04 02:05:19;;;;;;;1.77;1.48;;;28.60;48.00;;;;;;5090180;28;20119;-61
2021/07/04 02:07:44;;;;;;;1.92;1.48;;;28.60;48.00;;;;;;5079705;28;20046;-61
2021/07/04 02:10:18;;;;;;;1.90;1.42;;;28.60;47.90;;;;;;5083710;28;20047;-61
2021/07/04 02:12:43;;;;;;;1.73;1.40;;;28.70;47.90;;;;;;5091460;28;20036;-60
2021/07/04 02:15:27;;;;;;;2.20;1.50;;;28.60;47.90;;;;;;5080565;28;20035;-61
2021/07/04 02:17:53;;;;;;;1.67;1.38;;;28.60;47.90;;;;;;5071859;28;20053;-62
2021/07/04 02:20:33;;;;;;;2.00;1.50;;;28.60;48.00;;;;;;5083129;28;20126;-60
2021/07/04 02:23:01;;;;;;;2.53;1.50;;;28.60;47.90;;;;;;5079384;28;20051;-63
2021/07/04 02:25:27;;;;;;;1.88;1.38;;;28.70;47.90;;;;;;5083460;28;20036;-63
2021/07/04 02:27:54;;;;;;;2.45;1.42;;;28.70;47.90;;;;;;5083577;28;20027;-60
2021/07/04 02:30:19;;;;;;;2.70;1.65;;;28.60;48.00;;;;;;5074314;28;20510;-59
2021/07/04 02:32:45;;;;;;;1.83;1.30;;;28.60;48.00;;;;;;5081479;28;20315;-62
2021/07/04 02:35:11;;;;;;;1.80;1.40;;;28.70;48.00;;;;;;5083662;28;20063;-61
2021/07/04 02:37:37;;;;;;;1.95;1.52;;;28.60;47.80;;;;;;5065519;28;20032;-61
2021/07/04 02:40:04;;;;;;;2.20;1.50;;;28.70;47.90;;;;;;5075180;28;20024;-60
2021/07/04 02:42:30;;;;;;;2.25;1.48;;;28.70;47.80;;;;;;5087094;28;20061;-61
2021/07/04 02:44:58;;;;;;;1.60;1.40;;;28.70;47.80;;;;;;5070524;28;20033;-61
2021/07/04 02:47:24;;;;;;;1.92;1.40;;;28.70;47.90;;;;;;5071377;28;20066;-58
2021/07/04 02:49:49;;;;;;;1.77;1.40;;;28.60;47.90;;;;;;5064931;28;20031;-60
2021/07/04 02:52:15;;;;;;;1.88;1.40;;;28.60;47.90;;;;;;5090116;28;20058;-59
2021/07/04 02:54:41;;;;;;;2.35;1.40;;;28.60;47.80;;;;;;5088399;28;20865;-62
2021/07/04 02:57:06;;;;;;;1.73;1.33;;;28.60;47.80;;;;;;5084585;28;20366;-63
2021/07/04 02:59:33;;;;;;;1.75;1.40;;;28.70;47.80;;;;;;5082543;28;20546;-62
2021/07/04 03:01:59;;;;;;;2.22;1.50;;;28.70;47.80;;;;;;5084947;28;20565;-63
2021/07/04 03:04:24;;;;;;;2.10;1.38;;;28.70;47.80;;;;;;5081477;28;20028;-57
2021/07/04 03:06:50;;;;;;;2.15;1.50;;;28.70;47.80;;;;;;5071636;28;20378;-59
2021/07/04 03:09:16;;;;;;;2.05;1.55;;;28.60;47.70;;;;;;5079625;28;20032;-59
2021/07/04 03:11:41;;;;;;;1.60;1.30;;;28.60;47.70;;;;;;5084103;28;20063;-57
2021/07/04 03:14:07;;;;;;;1.75;1.40;;;28.60;47.70;;;;;;5082365;28;20952;-59
2021/07/04 03:16:33;;;;;;;2.05;1.60;;;28.60;47.80;;;;;;5084502;28;20036;-59
2021/07/04 03:18:58;;;;;;;2.95;1.40;;;28.70;47.90;;;;;;5077410;28;20067;-59
2021/07/04 03:21:24;;;;;;;3.78;1.60;;;28.60;47.80;;;;;;5083743;28;20032;-59
2021/07/04 03:23:49;;;;;;;2.28;1.48;;;28.60;47.80;;;;;;5081943;28;20141;-58
2021/07/04 03:26:15;;;;;;;1.90;1.33;;;28.60;47.80;;;;;;5091672;28;20101;-59
2021/07/04 03:28:41;;;;;;;1.70;1.40;;;28.60;47.70;;;;;;5084379;28;20032;-60
2021/07/04 03:31:06;;;;;;;1.88;1.42;;;28.60;47.70;;;;;;5083143;28;20828;-57
2021/07/04 03:33:32;;;;;;;3.35;1.52;;;28.60;47.70;;;;;;5082902;28;20107;-59
2021/07/04 03:35:58;;;;;;;1.83;1.48;;;28.60;47.70;;;;;;5088087;28;20077;-61
2021/07/04 03:38:23;;;;;;;2.00;1.45;;;28.60;47.70;;;;;;5099178;28;20020;-59
2021/07/04 03:40:49;;;;;;;1.55;1.20;;;28.60;47.70;;;;;;5090658;28;20439;-58
2021/07/04 03:43:15;;;;;;;1.63;1.30;;;28.60;47.80;;;;;;5090199;28;20036;-58
2021/07/04 03:45:40;;;;;;;1.52;1.10;;;28.60;47.60;;;;;;5090190;28;20413;-59
2021/07/04 03:48:06;;;;;;;1.70;1.30;;;28.60;47.70;;;;;;5088873;28;20028;-57
2021/07/04 03:50:32;;;;;;;1.55;1.17;;;28.60;47.70;;;;;;5091069;28;20127;-60
2021/07/04 03:52:57;;;;;;;1.60;1.20;;;28.50;47.70;;;;;;5088924;28;20028;-57
2021/07/04 03:55:24;;;;;;;1.92;1.30;;;28.50;47.70;;;;;;5089636;28;20115;-57
2021/07/04 03:57:52;;;;;;;1.50;1.20;;;28.50;47.80;;;;;;5089557;28;20051;-57
2021/07/04 04:00:17;;;;;;;1.63;1.20;;;28.40;47.80;;;;;;5077284;28;20409;-59
2021/07/04 04:02:43;;;;;;;1.60;1.30;;;28.40;47.80;;;;;;5088721;28;20032;-60
2021/07/04 04:05:10;;;;;;;1.25;1.10;;;28.40;47.90;;;;;;5094583;28;20020;-59
2021/07/04 04:07:35;;;;;;;1.50;1.10;;;28.30;47.80;;;;;;5089107;28;20063;-59
2021/07/04 04:10:06;;;;;;;1.40;1.17;;;28.30;47.80;;;;;;5090727;28;20051;-59
2021/07/04 04:12:31;;;;;;;2.13;1.25;;;28.30;47.90;;;;;;5069411;28;20466;-61
2021/07/04 04:15:00;;;;;;;1.38;1.10;;;28.30;47.90;;;;;;5069728;28;20016;-59
2021/07/04 04:17:26;;;;;;;1.50;1.20;;;28.30;47.90;;;;;;5087390;28;20085;-59
2021/07/04 04:19:51;;;;;;;1.30;1.02;;;28.20;47.90;;;;;;5088686;28;20028;-60
2021/07/04 04:22:17;;;;;;;2.47;1.10;;;28.20;48.00;;;;;;5089698;28;20031;-60
2021/07/04 04:24:43;;;;;;;1.40;1.10;;;28.20;48.00;;;;;;5088574;28;20065;-59
2021/07/04 04:27:08;;;;;;;1.42;1.20;;;28.20;48.00;;;;;;5080098;28;20099;-59
2021/07/04 04:29:34;;;;;;;1.65;1.20;;;28.10;48.10;;;;;;5080300;28;20040;-58
2021/07/04 04:32:00;;;;;;;1.65;1.20;;;28.10;48.10;;;;;;5087557;28;20035;-60
2021/07/04 04:34:26;;;;;;;1.30;1.20;;;28.10;48.10;;;;;;5082901;28;20063;-59
2021/07/04 04:36:51;;;;;;;1.38;1.00;;;28.00;48.10;;;;;;5089526;28;20028;-59
2021/07/04 04:39:20;;;;;;;1.25;1.05;;;28.00;48.10;;;;;;5089462;28;20097;-59
2021/07/04 04:41:46;;;;;;;1.30;1.10;;;28.00;48.20;;;;;;5090993;28;20039;-59
2021/07/04 04:44:11;;;;;;;2.10;1.13;;;28.00;48.20;;;;;;5086959;28;20482;-59
2021/07/04 04:46:37;;;;;;;1.48;1.10;;;27.90;48.20;;;;;;5100114;28;20113;-60
2021/07/04 04:49:03;;;;;;;1.63;1.17;;;27.90;48.20;;;;;;5089190;28;20032;-59
2021/07/04 04:51:28;;;;;;;1.33;1.20;;;27.90;48.20;;;;;;5088908;28;20032;-59
2021/07/04 04:53:54;;;;;;;1.42;1.13;;;27.90;48.20;;;;;;5087522;28;20108;-60
2021/07/04 04:56:19;;;;;;;1.30;1.08;;;27.80;48.20;;;;;;5087711;28;20123;-59
2021/07/04 04:58:45;;;;;;;1.20;1.10;;;27.80;48.30;;;;;;5089242;28;20232;-59
2021/07/04 05:01:12;;;;;;;1.73;1.30;;;27.80;48.30;;;;;;5087433;28;20428;-59
2021/07/04 05:03:37;;;;;;;1.52;1.20;;;27.80;48.30;;;;;;5088354;28;20027;-59
2021/07/04 05:06:03;;;;;;;1.40;1.13;;;27.80;48.40;;;;;;5086814;28;20024;-59
2021/07/04 05:08:30;;;;;;;1.70;1.33;;;27.70;48.40;;;;;;5087821;28;20031;-59
2021/07/04 05:10:56;;;;;;;1.80;1.30;;;27.70;48.40;;;;;;5089568;28;20016;-61
2021/07/04 05:13:22;;;;;;;1.52;1.30;;;27.70;48.40;;;;;;5089566;28;20066;-59
2021/07/04 05:15:48;;;;;;;2.20;1.08;;;27.70;48.50;;;;;;5088733;28;20036;-59
2021/07/04 05:18:13;;;;;;;1.85;1.35;;;27.70;48.50;;;;;;5089248;28;20063;-60
2021/07/04 05:20:39;;;;;;;2.33;1.20;;;27.60;48.40;;;;;;5091887;28;20024;-59
2021/07/04 05:23:04;;;;;;;1.10;0.98;;;27.60;48.50;;;;;;5100103;28;20621;-61
2021/07/04 05:25:30;;;;;;;1.45;1.10;;;27.60;48.50;;;;;;5091307;28;20024;-60
2021/07/04 05:27:56;;;;;;;2.20;1.30;;;27.60;48.50;;;;;;5091802;28;20024;-58
2021/07/04 05:30:21;;;;;;;1.65;1.20;;;27.60;48.50;;;;;;5090102;28;20032;-59
2021/07/04 05:32:47;;;;;;;1.33;1.10;;;27.60;48.60;;;;;;5079348;28;20504;-60
2021/07/04 05:35:13;;;;;;;1.27;1.10;;;27.50;48.50;;;;;;5084199;28;20028;-58
2021/07/04 05:37:38;;;;;;;1.20;1.10;;;27.50;48.50;;;;;;5087920;28;20442;-60
2021/07/04 05:40:11;;;;;;;1.20;1.10;;;27.50;48.60;;;;;;5105574;28;20498;-59
2021/07/04 05:42:37;;;;;;;1.58;1.27;;;27.50;48.60;;;;;;5085324;28;20126;-61
2021/07/04 05:45:07;;;;;;;1.60;1.27;;;27.40;48.60;;;;;;5104820;28;20142;-59
2021/07/04 05:47:33;;;;;;;1.48;1.20;;;27.40;48.60;;;;;;5099483;28;20080;-59
2021/07/04 05:49:59;;;;;;;1.83;1.40;;;27.40;48.60;;;;;;5088647;28;20028;-60
2021/07/04 05:52:24;;;;;;;1.70;1.15;;;27.40;48.60;;;;;;5086273;28;20063;-60
2021/07/04 05:54:50;;;;;;;1.67;1.30;;;27.40;48.70;;;;;;5086559;28;20034;-60
2021/07/04 05:57:16;;;;;;;1.55;1.20;;;27.30;48.70;;;;;;5086896;28;20032;-60
2021/07/04 05:59:41;;;;;;;1.60;1.20;;;27.40;48.70;;;;;;5091950;28;20050;-60
2021/07/04 06:02:07;;;;;;;1.50;1.20;;;27.30;48.70;;;;;;5084532;28;20090;-60
2021/07/04 06:04:33;;;;;;;1.63;1.20;;;27.30;48.70;;;;;;5085487;28;20111;-60
2021/07/04 06:06:59;;;;;;;1.70;1.30;;;27.30;48.80;;;;;;5073288;28;20139;-60
2021/07/04 06:09:24;;;;;;;1.80;1.25;;;27.30;48.80;;;;;;5073517;28;20406;-59
2021/07/04 06:11:51;;;;;;;1.10;1.00;;;27.30;48.80;;;;;;5091561;28;20107;-60
2021/07/04 06:14:17;;;;;;;1.95;1.33;;;27.20;49.30;;;;;;5083960;28;20668;-56
2021/07/04 06:16:43;;;;;;;2.00;1.10;;;27.20;48.80;;;;;;5085143;28;20032;-57
2021/07/04 06:19:09;;;;;;;1.80;1.40;;;27.20;48.80;;;;;;5086047;28;20039;-58
2021/07/04 06:21:34;;;;;;;1.38;1.10;;;27.20;48.80;;;;;;5089239;28;20024;-57
2021/07/04 06:24:00;;;;;;;1.60;1.30;;;27.20;48.90;;;;;;5087537;28;20039;-60
2021/07/04 06:26:26;;;;;;;2.38;1.70;;;27.20;48.90;;;;;;5085120;28;20146;-57
2021/07/04 06:28:51;;;;;;;2.60;2.13;;;27.10;49.30;;;;;;5090955;28;20039;-59
2021/07/04 06:31:17;;;;;;;3.42;2.40;;;27.00;49.40;;;;;;5094436;28;20494;-59
2021/07/04 06:33:44;;;;;;;3.55;2.53;;;26.90;49.90;;;;;;5084216;28;20059;-54
2021/07/04 06:36:10;;;;;;;3.80;2.30;;;26.80;50.20;;;;;;5084609;28;20062;-58
2021/07/04 06:38:36;;;;;;;3.10;2.33;;;26.70;50.50;;;;;;5085682;28;20028;-57
2021/07/04 06:41:01;;;;;;;3.00;2.50;;;26.60;50.70;;;;;;5087407;28;20052;-56
2021/07/04 06:43:27;;;;;;;3.55;2.65;;;26.50;50.90;;;;;;5085253;28;20046;-56
2021/07/04 06:45:53;;;;;;;4.05;2.33;;;26.40;51.20;;;;;;5085472;28;20127;-57
2021/07/04 06:48:19;;;;;;;2.70;1.92;;;26.40;51.30;;;;;;5085458;28;20039;-58
2021/07/04 06:50:45;;;;;;;2.60;2.00;;;26.40;51.20;;;;;;5065723;28;20055;-59
2021/07/04 06:53:10;;;;;;;2.55;2.05;;;26.40;51.00;;;;;;5084405;28;20049;-60
2021/07/04 06:55:36;;;;;;;4.00;2.00;;;26.50;50.90;;;;;;5081027;28;20134;-59
2021/07/04 06:58:02;;;;;;;3.78;1.80;;;26.50;50.70;;;;;;5081793;28;20116;-59
2021/07/04 07:00:28;;;;;;;3.10;1.90;;;26.60;50.60;;;;;;5081889;28;20094;-59
2021/07/04 07:02:54;;;;;;;2.20;1.80;;;26.60;50.60;;;;;;5077586;28;20107;-59
2021/07/04 07:05:19;;;;;;;2.38;1.83;;;26.60;50.40;;;;;;5086385;28;20028;-59
2021/07/04 07:07:45;;;;;;;2.28;1.80;;;26.60;50.90;;;;;;5081079;28;20153;-58
2021/07/04 07:10:13;;;;;;;2.05;1.67;;;26.60;50.40;;;;;;5080018;28;20024;-58
2021/07/04 07:12:39;;;;;;;2.70;1.90;;;26.60;50.40;;;;;;5084869;28;20116;-58
2021/07/04 07:15:05;;;;;;;2.85;1.90;;;26.60;50.40;;;;;;5094400;28;20020;-60
2021/07/04 07:17:31;;;;;;;2.65;1.80;;;26.60;50.30;;;;;;5095160;28;20711;-58
2021/07/04 07:19:57;;;;;;;2.92;2.00;;;26.60;50.30;;;;;;5104156;28;20153;-55
2021/07/04 07:22:22;;;;;;;2.30;1.83;;;26.60;50.30;;;;;;5084718;28;20028;-58
2021/07/04 07:24:49;;;;;;;3.03;2.08;;;26.60;50.30;;;;;;5088143;28;20032;-58
2021/07/04 07:27:16;;;;;;;2.40;1.90;;;26.60;50.30;;;;;;5103817;28;20065;-59
2021/07/04 07:29:41;;;;;;;2.00;1.63;;;26.60;50.20;;;;;;5105450;28;20212;-59
2021/07/04 07:32:07;;;;;;;2.22;1.60;;;26.60;50.30;;;;;;5088451;28;20072;-59
2021/07/04 07:34:33;;;;;;;2.85;1.95;;;26.60;50.20;;;;;;5083570;28;20480;-60
2021/07/04 07:36:59;;;;;;;3.15;1.88;;;26.60;50.20;;;;;;5083143;28;20028;-55
2021/07/04 07:39:24;;;;;;;2.22;1.70;;;26.60;50.20;;;;;;5084833;28;20024;-59
2021/07/04 07:41:51;;;;;;;2.95;1.80;;;26.50;50.10;;;;;;5085150;28;20089;-59
2021/07/04 07:44:16;;;;;;;3.13;1.98;;;26.50;50.60;;;;;;5084648;28;20063;-57
2021/07/04 07:46:42;;;;;;;2.40;1.67;;;26.60;50.20;;;;;;5084031;28;20095;-56
2021/07/04 07:49:09;;;;;;;1.92;1.42;;;26.50;50.20;;;;;;5084116;28;20534;-58
2021/07/04 07:51:35;;;;;;;2.35;1.60;;;26.50;50.10;;;;;;5084371;28;20059;-61
2021/07/04 07:54:00;;;;;;;2.70;1.60;;;26.50;50.10;;;;;;5084304;28;20063;-59
2021/07/04 07:56:26;;;;;;;1.92;1.48;;;26.50;50.10;;;;;;5095843;28;20426;-57
2021/07/04 07:58:52;;;;;;;2.63;1.67;;;26.50;50.10;;;;;;5084404;28;20078;-57
2021/07/04 08:01:18;;;;;;;2.35;1.50;;;26.50;50.10;;;;;;5083126;28;20169;-59
2021/07/04 08:03:44;;;;;;;2.35;1.50;;;26.50;50.20;;;;;;5081856;28;20107;-60
2021/07/04 08:06:10;;;;;;;2.40;1.65;;;26.50;50.20;;;;;;5064722;28;20036;-53
2021/07/04 08:08:37;;;;;;;3.20;1.63;;;26.50;50.20;;;;;;5083646;28;20032;-62
2021/07/04 08:11:03;;;;;;;2.22;1.52;;;26.50;50.20;;;;;;5082274;28;20039;-60
2021/07/04 08:13:29;;;;;;;2.17;1.58;;;26.50;50.20;;;;;;5084142;28;20028;-59
2021/07/04 08:15:55;;;;;;;2.03;1.58;;;26.50;50.20;;;;;;5082986;28;20105;-59
2021/07/04 08:18:21;;;;;;;1.85;1.40;;;26.50;50.20;;;;;;5082493;28;20047;-61
2021/07/04 08:20:47;;;;;;;1.73;1.40;;;26.50;50.20;;;;;;5087920;28;20078;-57
2021/07/04 08:23:13;;;;;;;3.28;1.80;;;26.50;50.20;;;;;;5065868;28;20498;-55
2021/07/04 08:25:38;;;;;;;1.83;1.40;;;26.40;50.10;;;;;;5081316;28;20036;-59
2021/07/04 08:28:04;;;;;;;1.85;1.48;;;26.50;50.20;;;;;;5086740;28;20027;-61
2021/07/04 08:30:30;;;;;;;2.30;1.40;;;26.40;50.10;;;;;;5087681;28;20039;-58
2021/07/04 08:32:56;;;;;;;2.30;1.50;;;26.50;50.20;;;;;;5086424;28;20276;-59
2021/07/04 08:35:21;;;;;;;2.00;1.50;;;26.40;50.10;;;;;;5107711;28;20077;-59
2021/07/04 08:37:47;;;;;;;1.80;1.42;;;26.40;50.10;;;;;;5098617;28;20063;-59
2021/07/04 08:40:14;;;;;;;1.63;1.38;;;26.50;50.20;;;;;;5107838;28;20053;-57
2021/07/04 08:42:40;;;;;;;1.90;1.40;;;26.40;50.20;;;;;;5103745;28;20024;-59
2021/07/04 08:45:06;;;;;;;1.70;1.30;;;26.40;50.20;;;;;;5086231;28;20024;-60
2021/07/04 08:47:32;;;;;;;4.07;1.40;;;26.40;50.20;;;;;;5086665;28;20032;-57
2021/07/04 08:49:58;;;;;;;1.80;1.30;;;26.40;50.20;;;;;;5091472;28;20043;-58
2021/07/04 08:52:24;;;;;;;2.50;1.50;;;26.40;50.20;;;;;;5087083;28;20055;-56
2021/07/04 08:54:50;;;;;;;2.10;1.40;;;26.40;50.30;;;;;;5088521;28;20459;-58
2021/07/04 08:57:17;;;;;;;2.03;1.65;;;26.40;50.30;;;;;;5087302;28;20020;-57
2021/07/04 08:59:45;;;;;;;2.25;1.55;;;26.40;50.30;;;;;;5068703;28;20034;-56
2021/07/04 09:02:13;;;;;;;2.60;1.63;;;26.40;50.30;;;;;;5083579;28;20550;-59
2021/07/04 09:05:01;;;;;;;1.80;1.40;;;26.40;50.40;;;;;;5083601;28;20128;-59
2021/07/04 09:07:28;;;;;;;2.08;1.38;;;26.40;50.40;;;;;;5084741;28;20040;-59
2021/07/04 09:10:03;;;;;;;2.03;1.40;;;26.40;50.40;;;;;;5088021;28;20627;-57
2021/07/04 09:12:40;;;;;;;2.58;1.30;;;26.40;50.40;;;;;;5086001;28;20680;-56
2021/07/04 09:15:26;;;;;;;1.70;1.50;;;26.30;50.30;;;;;;5084985;28;20107;-59
2021/07/04 09:17:59;;;;;;;2.08;1.70;;;26.30;50.40;;;;;;5085611;28;20460;-60
2021/07/04 09:20:31;;;;;;;1.70;1.42;;;26.30;50.40;;;;;;5087826;28;20580;-55
2021/07/04 09:22:59;;;;;;;1.85;1.40;;;26.30;50.40;;;;;;5085632;28;20036;-59
2021/07/04 09:25:27;;;;;;;1.90;1.50;;;26.40;50.40;;;;;;5086125;28;20036;-59
2021/07/04 09:28:07;;;;;;;2.08;1.60;;;26.30;50.40;;;;;;5085738;28;20024;-57
2021/07/04 09:30:53;;;;;;;2.17;1.50;;;26.30;50.40;;;;;;5095197;28;20059;-59
2021/07/04 09:33:19;;;;;;;2.20;1.60;;;26.30;50.50;;;;;;5084599;28;20036;-58
2021/07/04 09:36:01;;;;;;;1.80;1.48;;;26.30;50.40;;;;;;5085486;28;20026;-59
2021/07/04 09:38:35;;;;;;;2.20;1.50;;;26.30;50.40;;;;;;5065845;28;20494;-58
2021/07/04 09:41:03;;;;;;;1.60;1.30;;;26.30;50.40;;;;;;5081766;28;20020;-58
2021/07/04 09:43:31;;;;;;;2.20;1.52;;;26.30;50.40;;;;;;5085646;28;20058;-58
2021/07/04 09:45:58;;;;;;;1.77;1.27;;;26.30;50.40;;;;;;5084389;28;20115;-58
2021/07/04 09:48:32;;;;;;;1.70;1.33;;;26.30;50.40;;;;;;5085079;28;20032;-54
2021/07/04 09:51:15;;;;;;;2.28;1.65;;;26.30;50.40;;;;;;5084926;28;20078;-58
2021/07/04 09:53:56;;;;;;;1.92;1.27;;;26.30;50.40;;;;;;5085423;28;20028;-59
2021/07/04 09:56:33;;;;;;;1.70;1.30;;;26.30;50.40;;;;;;5091100;28;20023;-57
2021/07/04 09:59:04;;;;;;;1.85;1.50;;;26.30;50.40;;;;;;5086538;28;20034;-55
2021/07/04 10:01:56;;;;;;;2.10;1.50;;;26.30;50.40;;;;;;5088454;28;20036;-56
2021/07/04 10:04:36;;;;;;;1.95;1.58;;;26.30;50.50;;;;;;5073445;28;20078;-59
2021/07/04 10:07:03;;;;;;;2.00;1.40;;;26.30;50.50;;;;;;5086008;28;20584;-58
2021/07/04 10:09:29;;;;;;;1.98;1.38;;;26.30;50.50;;;;;;5086355;28;20032;-52
2021/07/04 10:11:56;;;;;;;2.10;1.40;;;26.30;50.50;;;;;;5090103;28;20031;-56
2021/07/04 10:14:22;;;;;;;1.80;1.38;;;26.20;50.40;;;;;;5084720;28;20035;-58
2021/07/04 10:16:49;;;;;;;1.80;1.30;;;26.30;50.50;;;;;;5085385;28;20028;-59
2021/07/04 10:19:19;;;;;;;1.75;1.50;;;26.20;50.50;;;;;;5075900;28;20028;-58
2021/07/04 10:21:48;;;;;;;2.15;1.60;;;26.20;50.50;;;;;;5079800;28;20028;-55
2021/07/04 10:24:14;;;;;;;1.95;1.55;;;26.20;50.40;;;;;;5084896;28;20027;-60
2021/07/04 10:26:41;;;;;;;1.77;1.40;;;26.20;50.50;;;;;;5084853;28;20127;-58
2021/07/04 10:29:07;;;;;;;2.05;1.50;;;26.20;50.50;;;;;;5069883;28;20120;-58
2021/07/04 10:31:34;;;;;;;1.52;1.20;;;26.20;50.50;;;;;;5085121;28;20036;-54
2021/07/04 10:34:11;;;;;;;2.15;1.52;;;26.20;50.50;;;;;;5083951;28;20455;-57
2021/07/04 10:37:04;;;;;;;1.98;1.50;;;26.30;50.60;;;;;;5084473;28;20038;-57
2021/07/04 10:39:33;;;;;;;2.33;1.70;;;26.30;50.60;;;;;;5082725;28;20532;-58
2021/07/04 10:42:05;;;;;;;1.67;1.33;;;26.20;50.60;;;;;;5085730;28;20040;-58
2021/07/04 10:44:45;;;;;;;1.80;1.40;;;26.20;50.60;;;;;;5085908;28;20067;-56
2021/07/04 10:47:23;;;;;;;2.08;1.58;;;26.20;50.60;;;;;;5082668;28;20074;-60
2021/07/04 10:49:49;;;;;;;1.65;1.30;;;26.20;50.60;;;;;;5081498;28;20028;-58
2021/07/04 10:52:21;;;;;;;2.55;1.40;;;26.20;50.70;;;;;;5088083;28;20104;-56
2021/07/04 10:54:51;;;;;;;1.88;1.40;;;26.20;50.60;;;;;;5082282;28;20483;-60
2021/07/04 10:57:21;;;;;;;1.90;1.30;;;26.20;51.20;;;;;;5091425;28;20059;-55
2021/07/04 11:00:03;;;;;;;1.98;1.48;;;26.20;50.70;;;;;;5077139;28;20032;-56
2021/07/04 11:02:42;;;;;;;2.20;1.50;;;26.20;50.70;;;;;;5081818;28;20039;-55
2021/07/04 11:05:09;;;;;;;1.70;1.30;;;26.20;50.70;;;;;;5083514;28;20465;-56
2021/07/04 11:07:53;;;;;;;2.10;1.50;;;26.20;50.60;;;;;;5083809;28;20112;-58
2021/07/04 11:10:23;;;;;;;1.60;1.23;;;26.20;50.70;;;;;;5056338;28;20111;-58
2021/07/04 11:12:49;;;;;;;1.85;1.48;;;26.20;50.70;;;;;;5080657;28;20479;-57
2021/07/04 11:15:15;;;;;;;2.17;1.40;;;26.20;50.70;;;;;;5065568;28;20074;-54
2021/07/04 11:17:59;;;;;;;2.30;1.50;;;26.20;50.70;;;;;;5075410;28;20383;-57
2021/07/04 11:20:49;;;;;;;1.90;1.40;;;26.20;50.80;;;;;;5075569;28;20043;-59
2021/07/04 11:23:27;;;;;;;1.50;1.23;;;26.20;50.70;;;;;;5066922;28;20109;-60
2021/07/04 11:25:54;;;;;;;1.58;1.30;;;26.20;50.70;;;;;;5084052;28;20695;-56
2021/07/04 11:28:23;;;;;;;2.10;1.40;;;26.20;50.70;;;;;;5086405;28;20043;-60
2021/07/04 11:31:00;;;;;;;2.22;1.30;;;26.20;50.60;;;;;;5082812;28;20042;-59
2021/07/04 11:33:30;;;;;;;1.75;1.30;;;26.20;50.60;;;;;;5072994;28;20477;-59
2021/07/04 11:36:02;;;;;;;1.60;1.30;;;26.20;50.60;;;;;;5081964;28;20016;-59
2021/07/04 11:38:37;;;;;;;1.52;1.30;;;26.20;50.70;;;;;;5082910;28;20578;-57
2021/07/04 11:41:05;;;;;;;2.08;1.27;;;26.20;50.70;;;;;;5085463;28;20016;-59
2021/07/04 11:43:31;;;;;;;2.53;1.20;;;26.20;50.70;;;;;;5082869;28;20429;-57
2021/07/04 11:46:03;;;;;;;1.88;1.50;;;26.20;51.20;;;;;;5083464;28;20085;-57
2021/07/04 11:48:51;;;;;;;2.05;1.50;;;26.20;50.70;;;;;;5082465;28;20036;-61
2021/07/04 11:51:23;;;;;;;1.77;1.25;;;26.20;50.70;;;;;;5073293;28;20086;-56
2021/07/04 11:53:51;;;;;;;1.58;1.23;;;26.20;51.20;;;;;;5090829;28;20024;-55
2021/07/04 11:56:17;;;;;;;1.83;1.48;;;26.20;50.70;;;;;;5082881;28;20354;-57
2021/07/04 11:58:43;;;;;;;2.08;1.40;;;26.20;50.60;;;;;;5088994;28;20021;-57
2021/07/04 12:01:24;;;;;;;2.33;1.40;;;26.20;50.70;;;;;;5087041;28;20036;-54
2021/07/04 12:03:56;;;;;;;1.73;1.30;;;26.20;50.70;;;;;;5086388;28;20369;-59
2021/07/04 12:06:25;;;;;;;2.00;1.38;;;26.20;50.70;;;;;;5079002;28;20114;-57
2021/07/04 12:09:03;;;;;;;1.60;1.20;;;26.20;50.60;;;;;;5068939;28;20138;-57
2021/07/04 12:11:39;;;;;;;1.93;1.37;;;26.20;50.60;;;;;;5090376;28;20024;-59
2021/07/04 12:14:24;;;;;;;1.50;1.20;;;26.20;50.70;;;;;;5082499;28;20028;-59
2021/07/04 12:16:50;;;;;;;2.80;1.40;;;26.20;50.60;;;;;;5083751;28;20028;-59
2021/07/04 12:19:33;;;;;;;1.50;1.23;;;26.20;50.60;;;;;;5080397;28;20122;-61
2021/07/04 12:22:01;;;;;;;1.35;1.20;;;26.20;50.60;;;;;;5059141;28;20031;-53
2021/07/04 12:24:34;;;;;;;1.67;1.30;;;26.20;50.60;;;;;;5079167;28;20043;-58
2021/07/04 12:26:59;;;;;;;1.50;1.20;;;26.20;50.60;;;;;;5083290;28;20059;-62
2021/07/04 12:29:25;;;;;;;1.55;1.17;;;26.20;50.60;;;;;;5084248;28;20063;-58
2021/07/04 12:32:04;;;;;;;1.80;1.30;;;26.20;50.60;;;;;;5070093;28;20454;-58
2021/07/04 12:34:32;;;;;;;2.08;1.40;;;26.20;50.60;;;;;;5083486;28;20454;-58
2021/07/04 12:36:59;;;;;;;1.70;1.20;;;26.20;50.60;;;;;;5085953;28;20042;-58
2021/07/04 12:39:32;;;;;;;1.20;1.10;;;26.20;50.60;;;;;;5083338;28;20031;-56
2021/07/04 12:41:58;;;;;;;1.38;1.17;;;26.20;50.60;;;;;;5082645;28;20028;-57
2021/07/04 12:44:24;;;;;;;1.75;1.20;;;26.20;50.60;;;;;;5083985;28;20138;-54
2021/07/04 12:46:50;;;;;;;1.90;1.40;;;26.20;50.60;;;;;;5081414;28;20435;-59
2021/07/04 12:49:16;;;;;;;1.90;1.58;;;26.20;51.20;;;;;;5084292;28;20046;-53
2021/07/04 12:51:46;;;;;;;1.58;1.30;;;26.20;50.60;;;;;;5080429;28;20028;-56